createdAt,value
2023-02-04T00:00:58.026Z,1.60
2023-02-04T00:06:00.443Z,1.30
2023-02-04T00:11:02.768Z,1.10
2023-02-04T00:16:05.509Z,1.00
2023-02-04T00:21:07.924Z,0.90
2023-02-04T00:26:10.416Z,0.80
2023-02-04T00:31:12.867Z,0.80
2023-02-04T00:36:15.303Z,0.80
2023-02-04T00:41:17.642Z,0.80
2023-02-04T00:46:21.772Z,0.80
2023-02-04T00:51:24.117Z,0.70
2023-02-04T00:56:26.518Z,0.70
2023-02-04T01:01:29.361Z,0.70
2023-02-04T01:06:31.867Z,0.70
2023-02-04T01:11:34.304Z,0.70
2023-02-04T01:16:36.778Z,0.70
2023-02-04T01:21:40.960Z,0.70
2023-02-04T01:26:43.428Z,0.70
2023-02-04T01:31:46.514Z,0.60
2023-02-04T01:36:48.893Z,0.60
2023-02-04T01:41:52.597Z,0.50
2023-02-04T01:46:55.622Z,0.50
2023-02-04T01:51:58.218Z,0.40
2023-02-04T01:57:01.108Z,0.30
2023-02-04T02:02:23.608Z,0.20
2023-02-04T02:07:26.002Z,0.10
2023-02-04T02:12:30.771Z,0.10
2023-02-04T02:17:33.765Z,0.10
2023-02-04T02:22:50.033Z,0.00
2023-02-04T02:27:52.704Z,0.00
2023-02-04T02:32:55.831Z,-0.10
2023-02-04T02:37:58.494Z,0.00
2023-02-04T02:43:00.907Z,0.00
2023-02-04T02:48:03.643Z,0.00
2023-02-04T02:53:11.086Z,0.00
2023-02-04T02:58:41.183Z,0.10
2023-02-04T03:03:51.134Z,0.20
2023-02-04T03:08:56.925Z,0.10
2023-02-04T03:14:04.142Z,0.10
2023-02-04T03:19:08.536Z,0.10
2023-02-04T03:24:11.087Z,0.60
2023-02-04T03:29:13.927Z,0.00
2023-02-04T03:34:17.225Z,0.00
2023-02-04T03:39:19.600Z,-0.10
2023-02-04T03:44:22.543Z,-0.10
2023-02-04T03:49:24.964Z,-0.20
2023-02-04T03:54:27.298Z,-0.20
2023-02-04T03:59:29.735Z,-0.20
2023-02-04T04:04:32.088Z,-0.20
2023-02-04T04:09:34.494Z,-0.30
2023-02-04T04:14:37.169Z,-0.30
2023-02-04T04:19:39.510Z,-0.40
2023-02-04T04:24:42.813Z,-0.40
2023-02-04T04:29:45.153Z,-0.50
2023-02-04T04:34:47.543Z,-0.50
2023-02-04T04:39:49.954Z,-0.50
2023-02-04T04:44:52.477Z,-0.50
2023-02-04T04:49:54.833Z,-0.50
2023-02-04T04:54:57.219Z,-0.50
2023-02-04T05:00:00.098Z,-0.60
2023-02-04T05:05:02.531Z,-0.60
2023-02-04T05:10:05.415Z,-0.70
2023-02-04T05:15:08.298Z,-0.70
2023-02-04T05:20:11.090Z,-0.80
2023-02-04T05:25:13.548Z,-0.70
2023-02-04T05:30:16.051Z,-0.90
2023-02-04T05:35:18.515Z,-0.90
2023-02-04T05:40:20.938Z,-1.00
2023-02-04T05:45:23.403Z,-1.00
2023-02-04T05:50:25.874Z,-1.00
2023-02-04T05:55:43.967Z,-1.10
2023-02-04T06:00:46.416Z,-1.20
2023-02-04T06:05:48.727Z,-1.20
2023-02-04T06:10:51.148Z,-1.20
2023-02-04T06:15:53.509Z,-1.20
2023-02-04T06:20:55.849Z,-1.30
2023-02-04T06:25:58.194Z,-1.10
2023-02-04T06:31:00.755Z,-1.20
2023-02-04T06:36:06.309Z,-1.10
2023-02-04T06:41:08.653Z,-1.00
2023-02-04T06:46:11.077Z,-0.90
2023-02-04T06:51:13.712Z,-0.80
2023-02-04T06:56:16.054Z,-0.60
2023-02-04T07:01:19.399Z,-0.50
2023-02-04T07:06:21.800Z,-0.40
2023-02-04T07:11:24.237Z,-0.20
2023-02-04T07:16:26.581Z,-0.10
2023-02-04T07:21:28.926Z,0.00
2023-02-04T07:26:31.292Z,0.10
2023-02-04T07:31:33.719Z,0.20
2023-02-04T07:36:36.206Z,0.40
2023-02-04T07:41:38.556Z,0.50
2023-02-04T07:46:41.025Z,0.50
2023-02-04T07:51:43.498Z,0.40
2023-02-04T07:56:45.891Z,0.50
2023-02-04T08:01:50.073Z,0.60
2023-02-04T08:06:52.605Z,0.60
2023-02-04T08:11:55.044Z,0.70
2023-02-04T08:16:57.461Z,0.70
2023-02-04T08:21:59.800Z,0.70
2023-02-04T08:27:02.185Z,0.80
2023-02-04T08:32:04.798Z,0.80
2023-02-04T08:37:07.219Z,0.80
2023-02-04T08:42:09.819Z,0.80
2023-02-04T08:47:12.509Z,1.00
2023-02-04T08:52:14.869Z,1.00
2023-02-04T08:57:20.517Z,0.90
2023-02-04T09:02:23.004Z,0.80
2023-02-04T09:07:25.405Z,0.90
2023-02-04T09:12:27.776Z,1.10
2023-02-04T09:17:30.063Z,2.00
2023-02-04T09:22:32.627Z,1.60
2023-02-04T09:27:34.991Z,1.60
2023-02-04T09:32:37.325Z,1.80
2023-02-04T09:37:39.672Z,1.80
2023-02-04T09:42:42.007Z,1.90
2023-02-04T09:47:44.613Z,1.90
2023-02-04T09:52:48.670Z,2.10
2023-02-04T09:57:51.384Z,2.20
2023-02-04T10:02:54.252Z,2.00
2023-02-04T10:07:58.227Z,1.70
2023-02-04T10:13:02.437Z,2.00
2023-02-04T10:18:08.520Z,2.10
2023-02-04T10:23:12.687Z,2.00
2023-02-04T10:28:15.205Z,1.90
2023-02-04T10:33:24.953Z,2.10
2023-02-04T10:38:27.305Z,2.30
2023-02-04T10:43:29.676Z,2.40
2023-02-04T10:48:41.008Z,2.50
2023-02-04T10:54:02.037Z,2.60
2023-02-04T10:59:04.948Z,2.60
2023-02-04T11:04:11.555Z,2.80
2023-02-04T11:09:15.086Z,2.80
2023-02-04T11:14:30.706Z,2.60
2023-02-04T11:19:38.999Z,2.30
2023-02-04T11:24:41.372Z,2.30
2023-02-04T11:29:43.880Z,2.30
2023-02-04T11:34:51.118Z,2.30
2023-02-04T11:39:53.704Z,2.30
2023-02-04T11:45:02.711Z,2.80
2023-02-04T11:50:41.942Z,3.30
2023-02-04T11:55:47.676Z,3.40
2023-02-04T12:00:51.182Z,3.90
2023-02-04T12:05:57.363Z,3.10
2023-02-04T12:11:12.338Z,3.00
2023-02-04T12:16:14.773Z,3.00
2023-02-04T12:21:19.487Z,3.10
2023-02-04T12:26:21.830Z,3.20
2023-02-04T12:31:24.301Z,3.10
2023-02-04T12:36:29.902Z,3.50
2023-02-04T12:41:32.238Z,2.70
2023-02-04T12:46:34.704Z,2.80
2023-02-04T12:51:37.111Z,2.90
2023-02-04T12:56:39.500Z,2.70
2023-02-04T13:01:41.880Z,2.60
2023-02-04T13:06:44.831Z,2.90
2023-02-04T13:11:47.267Z,2.90
2023-02-04T13:16:49.627Z,2.50
2023-02-04T13:21:51.949Z,2.10
2023-02-04T13:26:54.452Z,1.90
2023-02-04T13:31:57.002Z,1.80
2023-02-04T13:36:59.320Z,1.80
2023-02-04T13:42:03.161Z,1.70
2023-02-04T13:47:08.312Z,1.50
2023-02-04T13:52:10.761Z,1.40
2023-02-04T13:57:13.366Z,1.50
2023-02-04T14:02:15.710Z,1.60
2023-02-04T14:07:18.158Z,1.70
2023-02-04T14:12:20.517Z,2.10
2023-02-04T14:17:22.920Z,2.30
2023-02-04T14:22:25.239Z,2.30
2023-02-04T14:27:27.641Z,2.20
2023-02-04T14:32:29.981Z,2.10
2023-02-04T14:37:32.355Z,2.00
2023-02-04T14:42:35.848Z,1.90
2023-02-04T14:47:40.045Z,1.80
2023-02-04T14:52:42.642Z,1.80
2023-02-04T14:57:45.027Z,1.70
2023-02-04T15:02:47.598Z,1.70
2023-02-04T15:07:50.113Z,1.70
2023-02-04T15:12:52.507Z,1.60
2023-02-04T15:17:54.888Z,1.60
2023-02-04T15:22:59.702Z,1.50
2023-02-04T15:28:02.916Z,1.40
2023-02-04T15:33:05.448Z,1.40
2023-02-04T15:38:07.812Z,1.30
2023-02-04T15:43:10.170Z,1.20
2023-02-04T15:48:13.480Z,1.10
2023-02-04T15:53:16.374Z,1.10
2023-02-04T15:58:18.750Z,1.00
2023-02-04T16:03:21.126Z,1.00
2023-02-04T16:08:23.992Z,0.90
2023-02-04T16:13:26.316Z,0.80
2023-02-04T16:18:28.708Z,0.80
2023-02-04T16:23:31.016Z,0.80
2023-02-04T16:28:34.500Z,0.80
2023-02-04T16:33:36.895Z,0.60
2023-02-04T16:38:40.383Z,0.60
2023-02-04T16:43:42.859Z,0.50
2023-02-04T16:48:45.310Z,0.50
2023-02-04T16:53:47.718Z,0.50
2023-02-04T16:58:50.125Z,0.60
2023-02-04T17:03:58.369Z,0.50
2023-02-04T17:09:00.781Z,0.50
2023-02-04T17:14:12.338Z,0.40
2023-02-04T17:19:17.641Z,0.30
2023-02-04T17:24:20.033Z,0.20
2023-02-04T17:29:24.863Z,0.20
2023-02-04T17:34:27.593Z,0.20
2023-02-04T17:39:30.344Z,0.20
2023-02-04T17:44:33.085Z,0.10
2023-02-04T17:49:35.646Z,0.00
2023-02-04T17:54:38.668Z,-0.20
2023-02-04T17:59:41.155Z,-0.30
2023-02-04T18:04:44.178Z,-0.30
2023-02-04T18:09:46.673Z,-0.40
2023-02-04T18:14:49.163Z,-0.50
2023-02-04T18:19:51.759Z,-0.50
2023-02-04T18:24:54.220Z,-0.50
2023-02-04T18:29:58.263Z,-0.60
2023-02-04T18:35:04.976Z,-0.20
2023-02-04T18:40:10.487Z,-0.70
2023-02-04T18:45:25.157Z,-0.70
2023-02-04T18:50:29.666Z,-0.90
2023-02-04T18:55:44.787Z,-0.90
2023-02-04T19:00:50.394Z,-0.90
2023-02-04T19:05:54.829Z,-1.00
2023-02-04T19:10:58.558Z,-1.00
2023-02-04T19:16:17.810Z,-1.10
2023-02-04T19:21:29.437Z,-1.20
2023-02-04T19:26:40.210Z,-0.80
2023-02-04T19:31:42.646Z,-1.30
2023-02-04T19:36:45.169Z,-1.30
2023-02-04T19:41:52.390Z,-1.30
2023-02-04T19:46:55.787Z,-1.30
2023-02-04T19:51:59.319Z,-1.30
2023-02-04T19:57:01.750Z,-1.40
2023-02-04T20:02:07.153Z,-1.40
2023-02-04T20:07:23.161Z,-1.40
2023-02-04T20:12:28.523Z,-1.40
2023-02-04T20:17:37.403Z,-1.40
2023-02-04T20:22:47.503Z,-1.50
2023-02-04T20:27:57.067Z,-1.60
2023-02-04T20:33:11.950Z,-1.40
2023-02-04T20:38:17.608Z,-1.50
2023-02-04T20:43:24.233Z,-1.50
2023-02-04T20:48:32.467Z,-1.60
2023-02-04T20:53:47.238Z,-1.50
2023-02-04T20:58:50.216Z,-1.60
2023-02-04T21:03:52.661Z,-1.60
2023-02-04T21:08:57.770Z,-1.60
2023-02-04T21:14:00.213Z,-1.60
2023-02-04T21:19:02.658Z,-1.60
2023-02-04T21:24:05.620Z,-1.60
2023-02-04T21:29:08.663Z,-1.50
2023-02-04T21:34:11.125Z,-1.60
2023-02-04T21:39:13.636Z,-1.60
2023-02-04T21:44:15.975Z,-1.60
2023-02-04T21:49:18.374Z,-1.50
2023-02-04T21:54:20.810Z,-1.40
2023-02-04T21:59:25.211Z,-1.30
2023-02-04T22:04:27.620Z,-1.30
2023-02-04T22:09:30.255Z,-1.20
2023-02-04T22:14:32.618Z,-1.10
2023-02-04T22:19:35.009Z,-0.90
2023-02-04T22:24:37.451Z,-1.20
2023-02-04T22:29:39.794Z,-1.10
2023-02-04T22:34:42.262Z,-1.10
2023-02-04T22:39:44.709Z,-0.80
2023-02-04T22:44:47.280Z,-0.60
2023-02-04T22:49:49.656Z,-1.30
2023-02-04T22:54:52.730Z,-1.40
2023-02-04T22:59:55.208Z,-1.40
2023-02-04T23:04:57.582Z,-1.50
2023-02-04T23:10:00.377Z,-1.60
2023-02-04T23:15:02.847Z,-1.60
2023-02-04T23:20:05.657Z,-1.50
2023-02-04T23:25:08.497Z,-1.70
2023-02-04T23:30:11.524Z,-1.90
2023-02-04T23:35:14.183Z,-1.90
2023-02-04T23:40:16.667Z,-1.90
2023-02-04T23:45:19.055Z,-1.90
2023-02-04T23:50:21.612Z,-1.90
2023-02-04T23:55:24.227Z,-1.90
